sensor_id;sensor_type;location;lat;lon;timestamp;pressure;altitude;pressure_sealevel;temperature;humidity
37858;BME280;23695;55.868;37.472;2022-09-01T00:00:09;98595.09;;;12.08;63.38
37858;BME280;23695;55.868;37.472;2022-09-01T00:02:39;98591.44;;;12.01;63.22
37858;BME280;23695;55.868;37.472;2022-09-01T00:05:07;98598.19;;;11.91;63.21
37858;BME280;23695;55.868;37.472;2022-09-01T00:07:34;98593.88;;;11.86;63.64
37858;BME280;23695;55.868;37.472;2022-09-01T00:10:05;98595.94;;;11.77;63.52
37858;BME280;23695;55.868;37.472;2022-09-01T00:12:33;98599.63;;;11.69;64.01
37858;BME280;23695;55.868;37.472;2022-09-01T00:15:02;98602.69;;;11.68;64.17
37858;BME280;23695;55.868;37.472;2022-09-01T00:17:30;98593.44;;;11.69;64.38
37858;BME280;23695;55.868;37.472;2022-09-01T00:19:57;98602.50;;;11.76;64.27
37858;BME280;23695;55.868;37.472;2022-09-01T00:22:24;98610.94;;;11.75;65.06
37858;BME280;23695;55.868;37.472;2022-09-01T00:24:51;98607.38;;;11.86;64.82
37858;BME280;23695;55.868;37.472;2022-09-01T00:27:19;98605.28;;;11.96;64.62
37858;BME280;23695;55.868;37.472;2022-09-01T00:29:53;98601.47;;;12.00;64.48
37858;BME280;23695;55.868;37.472;2022-09-01T00:32:20;98607.41;;;12.06;63.99
37858;BME280;23695;55.868;37.472;2022-09-01T00:34:47;98603.56;;;12.07;64.01
37858;BME280;23695;55.868;37.472;2022-09-01T00:37:15;98603.56;;;12.07;64.17
37858;BME280;23695;55.868;37.472;2022-09-01T00:39:42;98606.13;;;12.00;64.43
37858;BME280;23695;55.868;37.472;2022-09-01T00:42:10;98602.56;;;11.96;63.76
37858;BME280;23695;55.868;37.472;2022-09-01T00:44:37;98600.41;;;11.85;63.91
37858;BME280;23695;55.868;37.472;2022-09-01T00:47:05;98607.28;;;11.83;63.74
37858;BME280;23695;55.868;37.472;2022-09-01T00:49:39;98604.84;;;11.78;64.12
37858;BME280;23695;55.868;37.472;2022-09-01T00:52:11;98603.19;;;11.73;64.21
37858;BME280;23695;55.868;37.472;2022-09-01T00:54:43;98611.31;;;11.73;64.08
37858;BME280;23695;55.868;37.472;2022-09-01T00:57:11;98608.47;;;11.66;64.72
37858;BME280;23695;55.868;37.472;2022-09-01T00:59:44;98612.44;;;11.72;64.57
37858;BME280;23695;55.868;37.472;2022-09-01T01:02:13;98604.25;;;11.69;64.67
37858;BME280;23695;55.868;37.472;2022-09-01T01:04:40;98606.09;;;11.64;64.51
37858;BME280;23695;55.868;37.472;2022-09-01T01:07:10;98611.44;;;11.61;64.66
37858;BME280;23695;55.868;37.472;2022-09-01T01:09:41;98613.34;;;11.60;64.62
37858;BME280;23695;55.868;37.472;2022-09-01T01:12:10;98607.00;;;11.53;64.58
37858;BME280;23695;55.868;37.472;2022-09-01T01:14:47;98613.28;;;11.41;65.21
37858;BME280;23695;55.868;37.472;2022-09-01T01:17:20;98601.94;;;11.35;65.26
37858;BME280;23695;55.868;37.472;2022-09-01T01:19:52;98602.47;;;11.25;65.58
37858;BME280;23695;55.868;37.472;2022-09-01T01:25:45;98601.25;;;11.07;65.50
37858;BME280;23695;55.868;37.472;2022-09-01T01:28:16;98592.72;;;11.05;65.35
37858;BME280;23695;55.868;37.472;2022-09-01T01:30:55;98598.72;;;10.98;66.11
37858;BME280;23695;55.868;37.472;2022-09-01T01:33:31;98594.34;;;10.94;66.07
37858;BME280;23695;55.868;37.472;2022-09-01T01:36:00;98592.28;;;10.87;66.43
37858;BME280;23695;55.868;37.472;2022-09-01T01:38:28;98600.38;;;10.87;66.27
37858;BME280;23695;55.868;37.472;2022-09-01T01:40:57;98593.38;;;10.86;66.09
37858;BME280;23695;55.868;37.472;2022-09-01T01:43:24;98598.00;;;10.86;66.63
37858;BME280;23695;55.868;37.472;2022-09-01T01:45:55;98597.75;;;10.75;66.83
37858;BME280;23695;55.868;37.472;2022-09-01T01:48:29;98603.94;;;10.75;66.52
37858;BME280;23695;55.868;37.472;2022-09-01T01:51:01;98603.56;;;10.77;66.74
37858;BME280;23695;55.868;37.472;2022-09-01T01:53:32;98600.56;;;10.78;66.63
37858;BME280;23695;55.868;37.472;2022-09-01T01:55:59;98608.31;;;10.80;66.37
37858;BME280;23695;55.868;37.472;2022-09-01T01:58:32;98605.16;;;10.78;66.71
37858;BME280;23695;55.868;37.472;2022-09-01T02:01:06;98598.53;;;10.75;66.58
37858;BME280;23695;55.868;37.472;2022-09-01T02:03:37;98599.56;;;10.71;66.82
37858;BME280;23695;55.868;37.472;2022-09-01T02:06:07;98602.94;;;10.68;66.65
37858;BME280;23695;55.868;37.472;2022-09-01T02:08:36;98601.34;;;10.51;67.76
37858;BME280;23695;55.868;37.472;2022-09-01T02:11:05;98604.50;;;10.53;66.67
37858;BME280;23695;55.868;37.472;2022-09-01T02:13:33;98606.75;;;10.51;66.75
37858;BME280;23695;55.868;37.472;2022-09-01T02:16:04;98600.03;;;10.45;66.83
37858;BME280;23695;55.868;37.472;2022-09-01T02:18:36;98608.03;;;10.41;66.92
37858;BME280;23695;55.868;37.472;2022-09-01T02:21:06;98609.16;;;10.40;67.11
37858;BME280;23695;55.868;37.472;2022-09-01T02:23:46;98607.25;;;10.41;67.29
37858;BME280;23695;55.868;37.472;2022-09-01T02:26:15;98602.97;;;10.40;67.48
37858;BME280;23695;55.868;37.472;2022-09-01T02:28:47;98612.56;;;10.37;67.39
37858;BME280;23695;55.868;37.472;2022-09-01T02:31:33;98607.69;;;10.43;67.66
37858;BME280;23695;55.868;37.472;2022-09-01T02:34:01;98607.44;;;10.48;67.76
37858;BME280;23695;55.868;37.472;2022-09-01T02:36:30;98600.25;;;10.52;67.86
37858;BME280;23695;55.868;37.472;2022-09-01T02:39:03;98604.84;;;10.52;67.55
37858;BME280;23695;55.868;37.472;2022-09-01T02:41:33;98606.50;;;10.56;67.27
37858;BME280;23695;55.868;37.472;2022-09-01T02:44:02;98607.06;;;10.62;67.25
37858;BME280;23695;55.868;37.472;2022-09-01T02:46:41;98620.56;;;10.62;67.25
37858;BME280;23695;55.868;37.472;2022-09-01T02:49:12;98620.19;;;10.63;67.15
37858;BME280;23695;55.868;37.472;2022-09-01T02:51:48;98616.44;;;10.68;67.22
37858;BME280;23695;55.868;37.472;2022-09-01T02:54:21;98602.72;;;10.73;66.86
37858;BME280;23695;55.868;37.472;2022-09-01T02:56:51;98604.19;;;10.70;67.31
37858;BME280;23695;55.868;37.472;2022-09-01T02:59:24;98595.94;;;10.79;66.69
37858;BME280;23695;55.868;37.472;2022-09-01T03:01:56;98606.38;;;10.81;66.77
37858;BME280;23695;55.868;37.472;2022-09-01T03:04:24;98607.00;;;10.90;66.46
37858;BME280;23695;55.868;37.472;2022-09-01T03:06:53;98599.41;;;10.95;66.67
37858;BME280;23695;55.868;37.472;2022-09-01T03:09:25;98598.31;;;10.96;66.33
37858;BME280;23695;55.868;37.472;2022-09-01T03:11:53;98596.66;;;11.07;65.99
37858;BME280;23695;55.868;37.472;2022-09-01T03:14:22;98584.16;;;11.03;65.75
37858;BME280;23695;55.868;37.472;2022-09-01T03:16:50;98603.63;;;11.09;65.24
37858;BME280;23695;55.868;37.472;2022-09-01T03:19:18;98599.34;;;11.07;65.51
37858;BME280;23695;55.868;37.472;2022-09-01T03:21:46;98603.00;;;10.99;65.35
37858;BME280;23695;55.868;37.472;2022-09-01T03:24:19;98599.88;;;11.13;65.24
37858;BME280;23695;55.868;37.472;2022-09-01T03:26:50;98603.09;;;11.19;65.24
37858;BME280;23695;55.868;37.472;2022-09-01T03:29:18;98597.78;;;11.22;65.08
37858;BME280;23695;55.868;37.472;2022-09-01T03:31:45;98601.78;;;11.28;64.69
37858;BME280;23695;55.868;37.472;2022-09-01T03:34:13;98596.13;;;11.33;64.37
37858;BME280;23695;55.868;37.472;2022-09-01T03:36:47;98601.69;;;11.41;63.86
37858;BME280;23695;55.868;37.472;2022-09-01T03:39:25;98599.50;;;11.46;63.84
37858;BME280;23695;55.868;37.472;2022-09-01T03:41:52;98596.44;;;11.48;64.03
37858;BME280;23695;55.868;37.472;2022-09-01T03:44:19;98596.59;;;11.55;63.38
37858;BME280;23695;55.868;37.472;2022-09-01T03:46:47;98606.38;;;11.59;63.52
37858;BME280;23695;55.868;37.472;2022-09-01T03:49:14;98599.91;;;11.64;63.17
37858;BME280;23695;55.868;37.472;2022-09-01T03:51:55;98605.41;;;11.68;63.43
37858;BME280;23695;55.868;37.472;2022-09-01T03:54:24;98596.16;;;11.69;62.99
37858;BME280;23695;55.868;37.472;2022-09-01T03:56:56;98597.72;;;11.70;62.90
37858;BME280;23695;55.868;37.472;2022-09-01T03:59:26;98612.72;;;11.67;62.88
37858;BME280;23695;55.868;37.472;2022-09-01T04:01:54;98602.34;;;11.69;62.95
37858;BME280;23695;55.868;37.472;2022-09-01T04:04:23;98604.44;;;11.76;62.89
37858;BME280;23695;55.868;37.472;2022-09-01T04:06:51;98599.53;;;11.81;62.79
37858;BME280;23695;55.868;37.472;2022-09-01T04:09:19;98598.41;;;11.82;62.77
37858;BME280;23695;55.868;37.472;2022-09-01T04:11:46;98594.28;;;11.88;62.78
37858;BME280;23695;55.868;37.472;2022-09-01T04:14:15;98581.53;;;11.89;62.47
37858;BME280;23695;55.868;37.472;2022-09-01T04:16:45;98601.88;;;11.83;62.17
37858;BME280;23695;55.868;37.472;2022-09-01T04:19:36;98591.84;;;11.83;61.52
37858;BME280;23695;55.868;37.472;2022-09-01T04:22:07;98596.94;;;11.85;61.55
37858;BME280;23695;55.868;37.472;2022-09-01T04:24:43;98592.09;;;11.94;61.03
37858;BME280;23695;55.868;37.472;2022-09-01T04:27:14;98596.44;;;11.99;60.57
37858;BME280;23695;55.868;37.472;2022-09-01T04:29:42;98584.75;;;11.95;59.63
37858;BME280;23695;55.868;37.472;2022-09-01T04:32:13;98595.09;;;12.08;59.24
37858;BME280;23695;55.868;37.472;2022-09-01T04:34:47;98594.81;;;12.13;58.82
37858;BME280;23695;55.868;37.472;2022-09-01T04:37:19;98594.03;;;12.13;57.79
37858;BME280;23695;55.868;37.472;2022-09-01T04:39:56;98588.63;;;12.13;57.65
37858;BME280;23695;55.868;37.472;2022-09-01T04:42:27;98582.84;;;12.14;57.29
37858;BME280;23695;55.868;37.472;2022-09-01T04:44:57;98598.44;;;12.21;57.35
37858;BME280;23695;55.868;37.472;2022-09-01T04:47:38;98594.75;;;12.29;57.13
37858;BME280;23695;55.868;37.472;2022-09-01T04:50:11;98589.81;;;12.35;57.04
37858;BME280;23695;55.868;37.472;2022-09-01T04:53:04;98587.94;;;12.58;56.51
37858;BME280;23695;55.868;37.472;2022-09-01T04:55:39;98587.22;;;12.61;55.59
37858;BME280;23695;55.868;37.472;2022-09-01T04:58:11;98588.72;;;12.59;54.97
37858;BME280;23695;55.868;37.472;2022-09-01T05:00:39;98588.00;;;12.81;55.07
37858;BME280;23695;55.868;37.472;2022-09-01T05:03:07;98591.16;;;12.87;54.21
37858;BME280;23695;55.868;37.472;2022-09-01T05:06:15;98578.56;;;12.98;53.72
37858;BME280;23695;55.868;37.472;2022-09-01T05:08:49;98587.31;;;12.88;53.73
37858;BME280;23695;55.868;37.472;2022-09-01T05:11:39;98593.81;;;12.83;53.72
37858;BME280;23695;55.868;37.472;2022-09-01T05:14:18;98583.41;;;12.85;53.16
37858;BME280;23695;55.868;37.472;2022-09-01T05:16:49;98591.94;;;12.87;53.24
37858;BME280;23695;55.868;37.472;2022-09-01T05:19:17;98593.59;;;12.92;52.69
37858;BME280;23695;55.868;37.472;2022-09-01T05:21:47;98597.09;;;12.92;52.63
37858;BME280;23695;55.868;37.472;2022-09-01T05:24:18;98599.91;;;12.99;52.47
37858;BME280;23695;55.868;37.472;2022-09-01T05:26:47;98595.88;;;13.13;52.03
37858;BME280;23695;55.868;37.472;2022-09-01T05:29:17;98606.22;;;13.07;52.30
37858;BME280;23695;55.868;37.472;2022-09-01T05:31:47;98602.72;;;13.26;52.11
37858;BME280;23695;55.868;37.472;2022-09-01T05:34:17;98607.88;;;13.35;51.46
37858;BME280;23695;55.868;37.472;2022-09-01T05:36:49;98610.28;;;13.40;51.67
37858;BME280;23695;55.868;37.472;2022-09-01T05:39:17;98608.16;;;13.52;51.52
37858;BME280;23695;55.868;37.472;2022-09-01T05:41:45;98609.88;;;13.64;51.15
37858;BME280;23695;55.868;37.472;2022-09-01T05:44:15;98604.41;;;13.34;50.93
37858;BME280;23695;55.868;37.472;2022-09-01T05:46:44;98605.53;;;13.59;51.12
37858;BME280;23695;55.868;37.472;2022-09-01T05:49:12;98598.28;;;13.67;50.86
37858;BME280;23695;55.868;37.472;2022-09-01T05:51:46;98596.47;;;13.75;50.58
37858;BME280;23695;55.868;37.472;2022-09-01T05:54:22;98602.50;;;13.91;50.34
37858;BME280;23695;55.868;37.472;2022-09-01T05:56:53;98600.91;;;14.16;49.67
37858;BME280;23695;55.868;37.472;2022-09-01T05:59:25;98594.72;;;14.20;49.49
37858;BME280;23695;55.868;37.472;2022-09-01T06:02:03;98591.28;;;14.56;48.77
37858;BME280;23695;55.868;37.472;2022-09-01T06:04:37;98594.63;;;14.76;47.93
37858;BME280;23695;55.868;37.472;2022-09-01T06:07:14;98603.66;;;14.87;47.87
37858;BME280;23695;55.868;37.472;2022-09-01T06:09:47;98599.19;;;15.09;47.66
37858;BME280;23695;55.868;37.472;2022-09-01T06:12:18;98595.84;;;15.26;47.24
37858;BME280;23695;55.868;37.472;2022-09-01T06:14:51;98596.13;;;15.62;45.79
37858;BME280;23695;55.868;37.472;2022-09-01T06:17:24;98591.75;;;15.50;45.34
37858;BME280;23695;55.868;37.472;2022-09-01T06:19:55;98583.56;;;15.47;44.84
37858;BME280;23695;55.868;37.472;2022-09-01T06:22:24;98593.25;;;15.44;45.45
37858;BME280;23695;55.868;37.472;2022-09-01T06:24:52;98595.69;;;15.56;44.87
37858;BME280;23695;55.868;37.472;2022-09-01T06:27:32;98589.75;;;15.44;44.84
37858;BME280;23695;55.868;37.472;2022-09-01T06:29:59;98591.09;;;15.16;45.15
37858;BME280;23695;55.868;37.472;2022-09-01T06:32:32;98601.19;;;14.75;46.48
37858;BME280;23695;55.868;37.472;2022-09-01T06:35:03;98603.66;;;14.50;46.93
37858;BME280;23695;55.868;37.472;2022-09-01T06:37:36;98607.31;;;14.31;47.15
37858;BME280;23695;55.868;37.472;2022-09-01T06:40:07;98603.69;;;13.94;47.80
37858;BME280;23695;55.868;37.472;2022-09-01T06:42:47;98609.88;;;13.91;48.03
37858;BME280;23695;55.868;37.472;2022-09-01T06:45:18;98609.25;;;13.74;48.86
37858;BME280;23695;55.868;37.472;2022-09-01T06:47:47;98615.03;;;13.46;50.04
37858;BME280;23695;55.868;37.472;2022-09-01T06:50:23;98620.97;;;13.29;50.73
37858;BME280;23695;55.868;37.472;2022-09-01T06:53:11;98607.81;;;13.31;51.34
37858;BME280;23695;55.868;37.472;2022-09-01T06:56:02;98610.66;;;13.65;51.10
37858;BME280;23695;55.868;37.472;2022-09-01T06:58:29;98606.75;;;13.88;50.20
37858;BME280;23695;55.868;37.472;2022-09-01T07:00:57;98613.31;;;13.87;49.94
37858;BME280;23695;55.868;37.472;2022-09-01T07:03:25;98614.56;;;14.24;49.15
37858;BME280;23695;55.868;37.472;2022-09-01T07:06:13;98618.91;;;14.62;48.12
37858;BME280;23695;55.868;37.472;2022-09-01T07:09:30;98612.59;;;15.28;46.13
37858;BME280;23695;55.868;37.472;2022-09-01T07:12:36;98617.00;;;15.03;44.97
37858;BME280;23695;55.868;37.472;2022-09-01T07:15:04;98619.72;;;15.47;44.09
37858;BME280;23695;55.868;37.472;2022-09-01T07:17:55;98612.19;;;16.65;41.33
37858;BME280;23695;55.868;37.472;2022-09-01T07:20:25;98623.59;;;17.06;40.28
37858;BME280;23695;55.868;37.472;2022-09-01T07:22:56;98614.97;;;16.86;39.96
37858;BME280;23695;55.868;37.472;2022-09-01T07:25:36;98602.25;;;16.10;40.11
37858;BME280;23695;55.868;37.472;2022-09-01T07:28:39;98625.50;;;15.42;41.84
37858;BME280;23695;55.868;37.472;2022-09-01T07:31:06;98621.44;;;15.22;42.13
37858;BME280;23695;55.868;37.472;2022-09-01T07:33:58;98630.22;;;15.05;42.74
37858;BME280;23695;55.868;37.472;2022-09-01T07:36:47;98635.28;;;15.06;42.44
37858;BME280;23695;55.868;37.472;2022-09-01T07:39:37;98635.06;;;15.25;42.06
37858;BME280;23695;55.868;37.472;2022-09-01T07:42:31;98633.22;;;15.37;40.79
37858;BME280;23695;55.868;37.472;2022-09-01T07:45:42;98637.47;;;15.30;41.15
37858;BME280;23695;55.868;37.472;2022-09-01T07:48:18;98639.88;;;15.43;40.98
37858;BME280;23695;55.868;37.472;2022-09-01T07:51:07;98640.72;;;15.47;41.06
37858;BME280;23695;55.868;37.472;2022-09-01T07:53:54;98644.84;;;15.30;41.25
37858;BME280;23695;55.868;37.472;2022-09-01T07:56:23;98647.00;;;15.58;41.05
37858;BME280;23695;55.868;37.472;2022-09-01T07:58:52;98630.94;;;15.39;41.35
37858;BME280;23695;55.868;37.472;2022-09-01T08:01:24;98638.25;;;15.35;41.24
37858;BME280;23695;55.868;37.472;2022-09-01T08:03:54;98640.91;;;15.27;41.55
37858;BME280;23695;55.868;37.472;2022-09-01T08:06:24;98638.16;;;15.20;42.00
37858;BME280;23695;55.868;37.472;2022-09-01T08:08:56;98635.06;;;15.25;41.89
37858;BME280;23695;55.868;37.472;2022-09-01T08:11:28;98641.22;;;15.19;41.58
37858;BME280;23695;55.868;37.472;2022-09-01T08:14:15;98641.06;;;15.01;42.08
37858;BME280;23695;55.868;37.472;2022-09-01T08:16:44;98647.41;;;15.12;41.78
37858;BME280;23695;55.868;37.472;2022-09-01T08:19:19;98635.38;;;15.13;41.91
37858;BME280;23695;55.868;37.472;2022-09-01T08:22:03;98624.69;;;14.94;42.36
37858;BME280;23695;55.868;37.472;2022-09-01T08:24:51;98643.97;;;14.82;42.33
37858;BME280;23695;55.868;37.472;2022-09-01T08:27:19;98646.38;;;14.87;42.64
37858;BME280;23695;55.868;37.472;2022-09-01T08:29:46;98645.72;;;15.00;42.17
37858;BME280;23695;55.868;37.472;2022-09-01T08:32:14;98643.53;;;15.13;41.99
37858;BME280;23695;55.868;37.472;2022-09-01T08:34:42;98645.94;;;15.25;41.71
37858;BME280;23695;55.868;37.472;2022-09-01T08:37:10;98646.81;;;15.37;41.51
37858;BME280;23695;55.868;37.472;2022-09-01T08:39:39;98641.97;;;15.60;41.15
37858;BME280;23695;55.868;37.472;2022-09-01T08:44:40;98642.25;;;15.48;40.79
37858;BME280;23695;55.868;37.472;2022-09-01T08:47:15;98643.91;;;15.15;41.42
37858;BME280;23695;55.868;37.472;2022-09-01T08:49:59;98660.75;;;14.91;41.80
37858;BME280;23695;55.868;37.472;2022-09-01T08:52:59;98642.50;;;14.91;41.96
37858;BME280;23695;55.868;37.472;2022-09-01T08:55:43;98649.50;;;14.89;41.53
37858;BME280;23695;55.868;37.472;2022-09-01T08:58:16;98647.84;;;14.81;42.72
37858;BME280;23695;55.868;37.472;2022-09-01T09:01:08;98646.44;;;14.94;42.47
37858;BME280;23695;55.868;37.472;2022-09-01T09:06:31;98647.53;;;14.86;43.04
37858;BME280;23695;55.868;37.472;2022-09-01T09:17:10;98657.16;;;14.80;43.22
37858;BME280;23695;55.868;37.472;2022-09-01T09:19:40;98656.34;;;14.76;43.03
37858;BME280;23695;55.868;37.472;2022-09-01T09:22:12;98662.56;;;14.76;43.23
37858;BME280;23695;55.868;37.472;2022-09-01T09:24:58;98653.13;;;14.66;43.26
37858;BME280;23695;55.868;37.472;2022-09-01T09:27:44;98656.97;;;14.62;43.33
37858;BME280;23695;55.868;37.472;2022-09-01T09:30:19;98660.38;;;14.55;43.45
37858;BME280;23695;55.868;37.472;2022-09-01T09:32:56;98665.72;;;14.82;43.29
37858;BME280;23695;55.868;37.472;2022-09-01T09:35:46;98668.63;;;14.99;42.99
37858;BME280;23695;55.868;37.472;2022-09-01T09:41:06;98681.59;;;15.13;42.63
37858;BME280;23695;55.868;37.472;2022-09-01T09:43:54;98682.09;;;14.85;42.90
37858;BME280;23695;55.868;37.472;2022-09-01T09:54:36;98693.44;;;14.61;44.63
37858;BME280;23695;55.868;37.472;2022-09-01T09:59:45;98690.66;;;14.91;44.29
37858;BME280;23695;55.868;37.472;2022-09-01T10:05:01;98693.03;;;15.29;43.60
37858;BME280;23695;55.868;37.472;2022-09-01T10:07:36;98697.41;;;15.45;43.13
37858;BME280;23695;55.868;37.472;2022-09-01T10:10:25;98694.28;;;15.43;42.88
37858;BME280;23695;55.868;37.472;2022-09-01T10:12:54;98690.16;;;15.56;42.72
37858;BME280;23695;55.868;37.472;2022-09-01T10:15:25;98696.16;;;15.76;41.99
37858;BME280;23695;55.868;37.472;2022-09-01T10:18:21;98705.22;;;15.94;41.87
37858;BME280;23695;55.868;37.472;2022-09-01T10:21:16;98698.50;;;15.77;41.79
37858;BME280;23695;55.868;37.472;2022-09-01T10:23:48;98700.69;;;15.61;42.08
37858;BME280;23695;55.868;37.472;2022-09-01T10:26:29;98708.66;;;15.40;42.53
37858;BME280;23695;55.868;37.472;2022-09-01T10:29:33;98701.81;;;15.16;42.93
37858;BME280;23695;55.868;37.472;2022-09-01T10:32:25;98710.91;;;14.93;43.42
37858;BME280;23695;55.868;37.472;2022-09-01T10:35:06;98711.25;;;14.92;43.68
37858;BME280;23695;55.868;37.472;2022-09-01T10:37:33;98705.41;;;14.90;44.02
37858;BME280;23695;55.868;37.472;2022-09-01T10:43:24;98707.47;;;14.66;45.05
37858;BME280;23695;55.868;37.472;2022-09-01T10:45:53;98707.91;;;14.68;44.89
37858;BME280;23695;55.868;37.472;2022-09-01T10:48:32;98711.03;;;14.70;44.78
37858;BME280;23695;55.868;37.472;2022-09-01T10:53:54;98712.13;;;14.99;44.19
37858;BME280;23695;55.868;37.472;2022-09-01T11:02:11;98703.69;;;15.49;42.99
37858;BME280;23695;55.868;37.472;2022-09-01T11:07:30;98711.91;;;16.00;41.36
37858;BME280;23695;55.868;37.472;2022-09-01T11:10:35;98706.03;;;15.98;40.57
37858;BME280;23695;55.868;37.472;2022-09-01T11:15:53;98702.72;;;16.26;40.82
37858;BME280;23695;55.868;37.472;2022-09-01T11:18:28;98706.19;;;16.23;40.36
37858;BME280;23695;55.868;37.472;2022-09-01T11:21:14;98703.03;;;16.14;40.51
37858;BME280;23695;55.868;37.472;2022-09-01T11:23:42;98694.06;;;16.13;41.00
37858;BME280;23695;55.868;37.472;2022-09-01T11:28:58;98692.63;;;16.34;40.57
37858;BME280;23695;55.868;37.472;2022-09-01T11:31:39;98703.84;;;16.22;40.37
37858;BME280;23695;55.868;37.472;2022-09-01T11:34:20;98697.19;;;16.08;40.45
37858;BME280;23695;55.868;37.472;2022-09-01T11:36:58;98694.13;;;15.66;40.75
37858;BME280;23695;55.868;37.472;2022-09-01T11:39:38;98698.16;;;15.38;40.98
37858;BME280;23695;55.868;37.472;2022-09-01T11:42:16;98700.34;;;15.25;41.52
37858;BME280;23695;55.868;37.472;2022-09-01T11:47:40;98703.59;;;15.38;41.60
37858;BME280;23695;55.868;37.472;2022-09-01T11:50:20;98706.81;;;15.54;41.47
37858;BME280;23695;55.868;37.472;2022-09-01T11:52:56;98697.72;;;15.80;41.05
37858;BME280;23695;55.868;37.472;2022-09-01T11:55:36;98702.25;;;16.13;40.65
37858;BME280;23695;55.868;37.472;2022-09-01T11:58:09;98701.63;;;16.38;39.93
37858;BME280;23695;55.868;37.472;2022-09-01T12:00:43;98673.94;;;16.29;39.91
37858;BME280;23695;55.868;37.472;2022-09-01T12:03:25;98699.06;;;16.01;40.09
37858;BME280;23695;55.868;37.472;2022-09-01T12:06:00;98684.56;;;15.82;40.47
37858;BME280;23695;55.868;37.472;2022-09-01T12:08:33;98692.97;;;15.67;40.78
37858;BME280;23695;55.868;37.472;2022-09-01T12:11:20;98669.56;;;15.58;40.96
37858;BME280;23695;55.868;37.472;2022-09-01T12:14:07;98683.00;;;15.41;41.05
37858;BME280;23695;55.868;37.472;2022-09-01T12:16:39;98688.84;;;15.39;41.04
37858;BME280;23695;55.868;37.472;2022-09-01T12:19:22;98683.94;;;15.55;40.64
37858;BME280;23695;55.868;37.472;2022-09-01T12:22:02;98681.19;;;15.55;40.55
37858;BME280;23695;55.868;37.472;2022-09-01T12:24:34;98678.16;;;15.61;40.38
37858;BME280;23695;55.868;37.472;2022-09-01T12:27:01;98678.06;;;15.53;40.45
37858;BME280;23695;55.868;37.472;2022-09-01T12:29:29;98677.16;;;15.39;40.79
37858;BME280;23695;55.868;37.472;2022-09-01T12:31:59;98684.94;;;15.40;40.62
37858;BME280;23695;55.868;37.472;2022-09-01T12:37:07;98677.06;;;15.28;40.15
37858;BME280;23695;55.868;37.472;2022-09-01T12:39:40;98687.06;;;15.17;40.02
37858;BME280;23695;55.868;37.472;2022-09-01T12:45:09;98683.91;;;15.11;40.60
37858;BME280;23695;55.868;37.472;2022-09-01T12:52:53;98683.22;;;15.62;39.41
37858;BME280;23695;55.868;37.472;2022-09-01T12:55:24;98679.75;;;15.65;39.73
37858;BME280;23695;55.868;37.472;2022-09-01T12:58:20;98677.41;;;15.64;39.13
37858;BME280;23695;55.868;37.472;2022-09-01T13:01:03;98683.16;;;15.58;39.22
37858;BME280;23695;55.868;37.472;2022-09-01T13:03:42;98681.84;;;15.86;39.21
37858;BME280;23695;55.868;37.472;2022-09-01T13:06:09;98688.63;;;16.13;39.36
37858;BME280;23695;55.868;37.472;2022-09-01T13:08:36;98681.19;;;16.03;39.48
37858;BME280;23695;55.868;37.472;2022-09-01T13:11:10;98687.84;;;16.13;39.48
37858;BME280;23695;55.868;37.472;2022-09-01T13:13:39;98682.00;;;16.14;39.79
37858;BME280;23695;55.868;37.472;2022-09-01T13:16:08;98673.84;;;16.14;39.93
37858;BME280;23695;55.868;37.472;2022-09-01T13:18:41;98671.97;;;16.26;39.46
37858;BME280;23695;55.868;37.472;2022-09-01T13:21:30;98673.13;;;16.21;39.54
37858;BME280;23695;55.868;37.472;2022-09-01T13:23:59;98674.97;;;16.06;39.52
37858;BME280;23695;55.868;37.472;2022-09-01T13:26:27;98663.56;;;15.90;40.03
37858;BME280;23695;55.868;37.472;2022-09-01T13:28:58;98669.78;;;15.87;40.08
37858;BME280;23695;55.868;37.472;2022-09-01T13:31:25;98660.41;;;15.81;40.36
37858;BME280;23695;55.868;37.472;2022-09-01T13:33:56;98664.34;;;15.83;39.91
37858;BME280;23695;55.868;37.472;2022-09-01T13:36:43;98664.00;;;15.96;39.98
37858;BME280;23695;55.868;37.472;2022-09-01T13:39:17;98673.22;;;15.73;40.12
37858;BME280;23695;55.868;37.472;2022-09-01T13:41:47;98668.47;;;15.67;40.01
37858;BME280;23695;55.868;37.472;2022-09-01T13:44:15;98662.94;;;15.59;40.00
37858;BME280;23695;55.868;37.472;2022-09-01T13:46:44;98671.03;;;15.49;40.49
37858;BME280;23695;55.868;37.472;2022-09-01T13:49:31;98674.78;;;15.78;40.84
37858;BME280;23695;55.868;37.472;2022-09-01T13:52:19;98668.38;;;16.11;41.14
37858;BME280;23695;55.868;37.472;2022-09-01T13:54:47;98662.66;;;16.30;40.70
37858;BME280;23695;55.868;37.472;2022-09-01T13:57:15;98666.97;;;16.38;40.40
37858;BME280;23695;55.868;37.472;2022-09-01T13:59:43;98666.97;;;16.35;40.48
37858;BME280;23695;55.868;37.472;2022-09-01T14:02:11;98666.44;;;16.08;40.79
37858;BME280;23695;55.868;37.472;2022-09-01T14:04:38;98669.72;;;15.76;41.19
37858;BME280;23695;55.868;37.472;2022-09-01T14:07:06;98669.50;;;15.51;41.33
37858;BME280;23695;55.868;37.472;2022-09-01T14:09:33;98672.38;;;15.25;41.97
37858;BME280;23695;55.868;37.472;2022-09-01T14:12:01;98668.00;;;15.17;42.10
37858;BME280;23695;55.868;37.472;2022-09-01T14:14:28;98669.06;;;15.05;42.28
37858;BME280;23695;55.868;37.472;2022-09-01T14:17:16;98679.09;;;14.97;42.34
37858;BME280;23695;55.868;37.472;2022-09-01T14:19:50;98686.88;;;14.99;42.33
37858;BME280;23695;55.868;37.472;2022-09-01T14:22:18;98691.72;;;14.79;43.79
37858;BME280;23695;55.868;37.472;2022-09-01T14:24:45;98702.47;;;14.42;46.75
37858;BME280;23695;55.868;37.472;2022-09-01T14:27:13;98704.69;;;14.33;47.58
37858;BME280;23695;55.868;37.472;2022-09-01T14:29:40;98715.63;;;14.40;47.97
37858;BME280;23695;55.868;37.472;2022-09-01T14:32:06;98700.06;;;14.63;48.17